Flight Track Log - Related Links

Times and Time Zones

All times are in EDT time to prevent confusion due to time zone crossing. See the AAL2007 flight status page for this flight to view local times or setup timezone preferences in your user account.

Time Position Orientation Groundspeed Altitude Reporting Facility
EDT Latitude Longitude Course Direction KTS MPH feet Rate Location/Type
Sat 05:59:39 PM 41.9167 -87.9167 207° Southwest 206 237 2,300  Level Chicago TRACON
Sat 06:00:39 PM 41.8500 -87.9000 169° South 256 295 4,700 2,857 Climbing Chicago TRACON
Sat 06:01:00 PM 41.7009 -88.1876 201° Southwest  Level Estimated
Sat 06:01:24 PM 41.7961 -87.9014 181° South 256 295 7,300  Level Chicago Center
Sat 06:02:00 PM 41.6072 -88.2807 197° South  Level Estimated
Sat 06:02:26 PM 41.7275 -87.9494 208° Southwest 279 321 10,000  Level Chicago Center
Sat 06:03:00 PM 41.5134 -88.3736 194° South  Level Estimated
Sat 06:03:28 PM 41.6564 -88.0017 209° Southwest 290 334 12,100  Level Chicago Center
Sat 06:04:00 PM 41.4195 -88.4661 207° Southwest  Level Estimated
Sat 06:04:30 PM 41.5744 -88.0572 207° Southwest 328 377 14,300  Level Chicago Center
Sat 06:05:32 PM 41.4694 -88.1256 206° Southwest 358 412 16,900 2,177 Climbing Chicago Center
Sat 06:06:34 PM 41.3789 -88.1828 205° Southwest 375 432 18,800 1,887 Climbing Chicago Center
Sat 06:07:36 PM 41.2789 -88.2403 203° Southwest 393 452 20,800 1,790 Climbing Chicago Center
Sat 06:08:38 PM 41.1758 -88.2967 202° Southwest 400 460 22,500 1,920 Climbing Chicago Center
Sat 06:09:41 PM 41.0444 -88.3533 198° South 415 478 24,800 1,872 Climbing Chicago Center
Sat 06:10:43 PM 40.9328 -88.4014 198° South 423 487 26,400 1,452 Climbing Chicago Center
Sat 06:11:45 PM 40.8194 -88.4511 198° South 428 493 27,800 1,355 Climbing Chicago Center
Sat 06:12:47 PM 40.7061 -88.5058 200° South 434 499 29,200 1,306 Climbing Chicago Center
Sat 06:13:49 PM 40.6147 -88.6025 219° Southwest 423 487 30,500 1,306 Climbing Chicago Center
Sat 06:14:51 PM 40.5086 -88.7194 220° Southwest 419 482 31,900 1,210 Climbing Chicago Center
Sat 06:15:53 PM 40.4256 -88.8111 220° Southwest 421 484 33,000 968 Climbing Chicago Center
Sat 06:16:55 PM 40.3392 -88.9072 220° Southwest 410 472 33,900 484 Climbing Chicago Center
Sat 06:17:57 PM 40.2508 -89.0044 220° Southwest 413 475 34,000 48 Climbing Chicago Center
Sat 06:18:59 PM 40.1594 -89.1019 219° Southwest 420 483 34,000  Level Chicago Center
Sat 06:19:48 PM 40.0875 -89.1794 220° Southwest 414 476 34,000  Level Kansas City Center
Sat 06:20:49 PM 39.9806 -89.2942 219° Southwest 414 476 34,000  Level Kansas City Center
Sat 06:21:51 PM 39.8942 -89.3886 220° Southwest 407 468 34,000  Level Kansas City Center
Sat 06:22:53 PM 39.8067 -89.4819 219° Southwest 406 467 34,000  Level Kansas City Center
Sat 06:23:55 PM 39.7183 -89.5764 219° Southwest 408 470 34,000  Level Kansas City Center
Sat 06:24:56 PM 39.6339 -89.6689 220° Southwest 411 473 34,000  Level Kansas City Center
Sat 06:25:58 PM 39.5458 -89.7619 219° Southwest 410 472 34,000  Level Kansas City Center
Sat 06:27:00 PM 39.4597 -89.8550 220° Southwest 406 467 34,000  Level Kansas City Center
Sat 06:28:01 PM 39.3528 -89.9678 219° Southwest 412 474 34,000  Level Kansas City Center
Sat 06:29:03 PM 39.2650 -90.0614 220° Southwest 411 473 34,000  Level Kansas City Center
Sat 06:30:05 PM 39.1778 -90.1533 219° Southwest 408 470 34,000  Level Kansas City Center
Sat 06:31:07 PM 39.0906 -90.2450 219° Southwest 407 468 34,000  Level Kansas City Center
Sat 06:32:08 PM 39.0044 -90.3361 219° Southwest 403 464 34,000  Level Kansas City Center
Sat 06:33:10 PM 38.9081 -90.4375 219° Southwest 400 460 34,000  Level Kansas City Center
Sat 06:34:11 PM 38.8192 -90.5328 220° Southwest 409 471 34,000  Level Kansas City Center
Sat 06:35:13 PM 38.7336 -90.6278 221° Southwest 405 466 34,000  Level Kansas City Center
Sat 06:36:15 PM 38.6478 -90.7311 223° Southwest 429 494 34,000  Level Kansas City Center
Sat 06:37:16 PM 38.5631 -90.8286 222° Southwest 423 487 34,000  Level Kansas City Center
Sat 06:38:18 PM 38.4783 -90.9250 222° Southwest 416 479 34,000  Level Kansas City Center
Sat 06:39:19 PM 38.3753 -91.0433 222° Southwest 416 479 34,000  Level Kansas City Center
Sat 06:40:21 PM 38.2892 -91.1411 222° Southwest 416 479 34,000  Level Kansas City Center
Sat 06:41:23 PM 38.2014 -91.2367 221° Southwest 415 478 34,000  Level Kansas City Center
Sat 06:42:24 PM 38.1117 -91.3394 222° Southwest 419 482 34,000  Level Kansas City Center
Sat 06:43:26 PM 38.0222 -91.4397 221° Southwest 426 490 34,000  Level Kansas City Center
Sat 06:44:28 PM 37.9328 -91.5403 222° Southwest 427 491 34,000  Level Kansas City Center
Sat 06:45:29 PM 37.8439 -91.6406 222° Southwest 426 490 34,000  Level Kansas City Center
Sat 06:46:31 PM 37.7539 -91.7425 222° Southwest 429 494 34,000  Level Kansas City Center
Sat 06:47:33 PM 37.6636 -91.8450 222° Southwest 431 496 34,000  Level Kansas City Center
Sat 06:48:34 PM 37.5728 -91.9456 221° Southwest 430 495 34,000  Level Kansas City Center
Sat 06:49:36 PM 37.4617 -92.0669 221° Southwest 434 499 34,000  Level Kansas City Center
Sat 06:50:37 PM 37.3656 -92.1625 218° Southwest 437 503 34,000  Level Kansas City Center
Sat 06:51:39 PM 37.2650 -92.2519 215° Southwest 440 506 34,000  Level Kansas City Center
Sat 06:52:40 PM 37.1650 -92.3444 216° Southwest 442 509 34,000  Level Kansas City Center
Sat 06:53:42 PM 37.0658 -92.4389 217° Southwest 445 512 34,000  Level Kansas City Center
Sat 06:54:43 PM 36.9650 -92.5289 216° Southwest 444 511 34,000  Level Kansas City Center
Sat 06:55:45 PM 36.8650 -92.6206 216° Southwest 443 510 34,000  Level Kansas City Center
Sat 06:56:46 PM 36.7642 -92.7106 216° Southwest 445 512 34,000  Level Kansas City Center
Sat 06:57:48 PM 36.6622 -92.8006 215° Southwest 447 514 34,000  Level Kansas City Center
Sat 06:58:20 PM 36.6069 -92.8567 219° Southwest 447 514 34,000  Level Memphis Center
Sat 06:59:20 PM 36.5050 -92.9464 215° Southwest 447 514 34,000  Level Memphis Center
Sat 06:59:51 PM 36.4483 -92.9922 213° Southwest 448 516 34,000  Level Kansas City Center
Sat 07:00:53 PM 36.3472 -93.0853 217° Southwest 452 520 34,000  Level Kansas City Center
Sat 07:01:54 PM 36.2436 -93.1775 216° Southwest 459 528 34,000  Level Kansas City Center
Sat 07:02:56 PM 36.1408 -93.2697 216° Southwest 460 529 34,000  Level Kansas City Center
Sat 07:03:58 PM 36.0381 -93.3619 216° Southwest 459 528 34,000  Level Kansas City Center
Sat 07:04:59 PM 35.9125 -93.4725 216° Southwest 463 533 34,000  Level Kansas City Center
Sat 07:06:20 PM 35.7683 -93.5986 215° Southwest 464 534 34,000  Level Memphis Center
Sat 07:07:20 PM 35.6658 -93.6892 216° Southwest 464 534 34,000  Level Memphis Center
Sat 07:08:20 PM 35.5611 -93.7819 216° Southwest 464 534 34,000  Level Memphis Center
Sat 07:09:20 PM 35.4564 -93.8719 215° Southwest 464 534 34,000  Level Memphis Center
Sat 07:10:20 PM 35.3539 -93.9619 216° Southwest 464 534 34,000  Level Memphis Center
Sat 07:11:20 PM 35.2489 -94.0514 215° Southwest 464 534 34,000  Level Memphis Center
Sat 07:12:20 PM 35.1461 -94.1433 216° Southwest 464 534 34,000  Level Memphis Center
Sat 07:13:20 PM 35.0369 -94.2322 214° Southwest 470 541 34,000  Level Memphis Center
Sat 07:14:20 PM 34.9339 -94.3239 216° Southwest 470 541 34,000  Level Memphis Center
Sat 07:15:51 PM 34.7853 -94.4506 215° Southwest 463 533 34,000  Level Fort Worth Center
Sat 07:16:51 PM 34.6808 -94.5425 216° Southwest 463 533 34,000  Level Fort Worth Center
Sat 07:17:51 PM 34.5764 -94.6292 214° Southwest 469 540 34,000  Level Fort Worth Center
Sat 07:18:51 PM 34.4742 -94.7181 216° Southwest 464 534 34,000  Level Fort Worth Center
Sat 07:19:51 PM 34.3675 -94.8069 215° Southwest 464 534 34,000  Level Fort Worth Center
Sat 07:20:51 PM 34.2628 -94.8956 215° Southwest 464 534 34,000  Level Fort Worth Center
Sat 07:21:51 PM 34.1581 -94.9814 214° Southwest 464 534 34,000  Level Fort Worth Center
Sat 07:22:51 PM 34.0411 -95.0800 215° Southwest 464 534 34,000  Level Fort Worth Center
Sat 07:23:51 PM 33.9342 -95.1681 214° Southwest 464 534 34,000  Level Fort Worth Center
Sat 07:24:51 PM 33.8314 -95.2531 214° Southwest 464 534 34,000  Level Fort Worth Center
Sat 07:25:51 PM 33.7264 -95.3381 214° Southwest 464 534 34,000  Level Fort Worth Center
Sat 07:26:51 PM 33.6233 -95.4253 215° Southwest 464 534 34,000  Level Fort Worth Center
Sat 07:27:51 PM 33.5161 -95.5100 213° Southwest 464 534 34,000  Level Fort Worth Center
Sat 07:28:51 PM 33.4131 -95.5919 214° Southwest 456 525 34,000  Level Fort Worth Center
Sat 07:29:51 PM 33.3056 -95.6761 213° Southwest 456 525 34,000  Level Fort Worth Center
Sat 07:30:51 PM 33.2003 -95.7625 214° Southwest 461 531 34,000  Level Fort Worth Center
Sat 07:31:51 PM 33.0969 -95.8439 213° Southwest 461 531 34,000  Level Fort Worth Center
Sat 07:32:51 PM 32.9917 -95.9297 214° Southwest 461 531 34,000  Level Fort Worth Center
Sat 07:33:51 PM 32.8861 -96.0156 214° Southwest 461 531 34,000  Level Fort Worth Center
Sat 07:34:51 PM 32.7828 -96.0989 214° Southwest 461 531 34,000  Level Fort Worth Center
Sat 07:35:51 PM 32.6769 -96.1819 213° Southwest 461 531 34,000  Level Fort Worth Center
Sat 07:36:51 PM 32.5714 -96.2647 213° Southwest 461 531 34,000  Level Fort Worth Center
Sat 07:37:51 PM 32.4656 -96.3497 214° Southwest 461 531 34,000  Level Fort Worth Center
Sat 07:38:51 PM 32.3619 -96.4319 214° Southwest 461 531 34,000  Level Fort Worth Center
Sat 07:39:51 PM 32.2581 -96.5142 214° Southwest 461 531 34,000  Level Fort Worth Center
Sat 07:40:51 PM 32.1522 -96.5986 214° Southwest 461 531 34,000  Level Fort Worth Center
Sat 07:41:51 PM 32.0378 -96.6708 208° Southwest 467 537 34,000 -100 Level Fort Worth Center
Sat 07:42:51 PM 31.9297 -96.7425 209° Southwest 462 532 33,800 -1,500 Descending Fort Worth Center
Sat 07:43:51 PM 31.8194 -96.8144 209° Southwest 457 526 31,000 -2,750 Descending Fort Worth Center
Sat 07:44:51 PM 31.7069 -96.8883 209° Southwest 462 532 28,300 -2,638 Descending Fort Worth Center
Sat 07:46:12 PM 31.5564 -96.9844 209° Southwest 459 528 24,800 -2,282 Descending Houston Center
Sat 07:47:13 PM 31.4478 -97.0547 209° Southwest 444 511 22,900 -1,561 Descending Houston Center
Sat 07:48:15 PM 31.3422 -97.1233 209° Southwest 431 496 21,600 -1,902 Descending Houston Center
Sat 07:49:16 PM 31.2381 -97.1908 209° Southwest 426 490 19,000 -2,164 Descending Houston Center
Sat 07:50:17 PM 31.1319 -97.2406 202° Southwest 411 473 17,200 -2,049 Descending Houston Center
Sat 07:51:19 PM 31.0278 -97.2806 198° South 395 455 14,800 -2,000 Descending Houston Center
Sat 07:52:20 PM 30.9108 -97.3264 199° South 395 455 13,100 -878 Descending Houston Center
Sat 07:53:22 PM 30.8100 -97.3644 198° South 385 443 13,000 -537 Descending Houston Center
Sat 07:54:23 PM 30.7114 -97.4022 198° South 375 432 12,000 -1,180 Descending Houston Center
Sat 07:55:24 PM 30.6128 -97.4403 198° South 371 427 10,600 -976 Descending Houston Center
Sat 07:56:26 PM 30.5181 -97.4775 199° South 360 414 10,000 -341 Descending Houston Center
Sat 07:57:27 PM 30.4297 -97.5114 198° South 333 383 9,900 -787 Descending Houston Center
Sat 07:58:28 PM 30.3511 -97.5375 196° South 299 344 8,400 -1,512 Descending Houston Center
Sat 07:59:30 PM 30.2689 -97.5464 185° South 293 337 6,800 -1,366 Descending Houston Center
Sat 08:00:31 PM 30.1903 -97.5589 188° South 285 328 5,600 -1,328 Descending Houston Center
Sat 08:01:32 PM 30.1244 -97.5728 190° South 247 284 4,100 -1,512 Descending Houston Center
Sat 08:02:34 PM 30.0633 -97.6008 202° Southwest 226 260 2,500 -780 Descending Houston Center
Sat 08:03:35 PM 30.0758 -97.6569 284° West 193 222 2,500 -293 Level Houston Center
Sat 08:04:37 PM 30.1089 -97.6761 333° Northwest 168 193 1,900 -683 Descending Houston Center
Sat 08:05:38 PM 30.1489 -97.6786 357° North 150 173 1,100 -787 Descending Houston Center

Login

Don't have an account? Register now (free) for customized features, flight alerts, and more!